sensor_id;sensor_type;location;lat;lon;timestamp;pressure;altitude;pressure_sealevel;temperature;humidity
46714;BME280;32445;51.376;10.874;2023-03-19T00:00:55;99067.66;;;12.70;47.98
46714;BME280;32445;51.376;10.874;2023-03-19T00:03:56;99064.28;;;12.68;47.73
46714;BME280;32445;51.376;10.874;2023-03-19T00:06:56;99075.59;;;12.67;47.89
46714;BME280;32445;51.376;10.874;2023-03-19T00:09:56;99066.16;;;12.64;48.39
46714;BME280;32445;51.376;10.874;2023-03-19T00:12:57;99071.44;;;12.63;48.11
46714;BME280;32445;51.376;10.874;2023-03-19T00:15:57;99070.59;;;12.62;48.15
46714;BME280;32445;51.376;10.874;2023-03-19T00:18:57;99069.78;;;12.60;47.78
46714;BME280;32445;51.376;10.874;2023-03-19T00:21:58;99075.97;;;12.58;47.74
46714;BME280;32445;51.376;10.874;2023-03-19T00:24:58;99080.34;;;12.57;48.30
46714;BME280;32445;51.376;10.874;2023-03-19T00:27:58;99083.00;;;12.56;48.70
46714;BME280;32445;51.376;10.874;2023-03-19T00:31:08;99096.09;;;12.54;48.85
46714;BME280;32445;51.376;10.874;2023-03-19T00:34:09;99088.34;;;12.53;48.46
46714;BME280;32445;51.376;10.874;2023-03-19T00:37:10;99093.69;;;12.50;48.74
46714;BME280;32445;51.376;10.874;2023-03-19T00:40:11;99103.22;;;12.49;48.88
46714;BME280;32445;51.376;10.874;2023-03-19T00:43:11;99107.59;;;12.49;48.95
46714;BME280;32445;51.376;10.874;2023-03-19T00:46:12;99116.31;;;12.48;49.67
46714;BME280;32445;51.376;10.874;2023-03-19T00:49:13;99115.81;;;12.38;50.24
46714;BME280;32445;51.376;10.874;2023-03-19T00:52:13;99112.63;;;12.31;50.29
46714;BME280;32445;51.376;10.874;2023-03-19T00:55:14;99119.19;;;12.19;50.65
46714;BME280;32445;51.376;10.874;2023-03-19T00:58:14;99117.41;;;12.20;50.75
46714;BME280;32445;51.376;10.874;2023-03-19T01:01:16;99114.94;;;12.17;51.29
46714;BME280;32445;51.376;10.874;2023-03-19T01:04:17;99108.16;;;12.13;51.31
46714;BME280;32445;51.376;10.874;2023-03-19T01:07:18;99115.16;;;12.10;50.89
46714;BME280;32445;51.376;10.874;2023-03-19T01:10:19;99115.91;;;12.14;50.83
46714;BME280;32445;51.376;10.874;2023-03-19T01:13:21;99113.97;;;12.19;51.04
46714;BME280;32445;51.376;10.874;2023-03-19T01:16:21;99112.97;;;12.22;50.60
46714;BME280;32445;51.376;10.874;2023-03-19T01:19:22;99110.22;;;12.26;51.03
46714;BME280;32445;51.376;10.874;2023-03-19T01:22:22;99111.00;;;12.28;50.12
46714;BME280;32445;51.376;10.874;2023-03-19T01:25:23;99123.94;;;12.30;50.13
46714;BME280;32445;51.376;10.874;2023-03-19T01:28:23;99119.63;;;12.29;50.35
46714;BME280;32445;51.376;10.874;2023-03-19T01:31:24;99117.03;;;12.29;50.51
46714;BME280;32445;51.376;10.874;2023-03-19T01:34:24;99119.56;;;12.31;50.55
46714;BME280;32445;51.376;10.874;2023-03-19T01:37:24;99116.97;;;12.31;50.35
46714;BME280;32445;51.376;10.874;2023-03-19T01:40:25;99117.84;;;12.31;49.62
46714;BME280;32445;51.376;10.874;2023-03-19T01:43:27;99121.28;;;12.32;50.48
46714;BME280;32445;51.376;10.874;2023-03-19T01:46:31;99120.44;;;12.31;50.21
46714;BME280;32445;51.376;10.874;2023-03-19T01:49:33;99124.72;;;12.32;50.71
46714;BME280;32445;51.376;10.874;2023-03-19T01:52:34;99121.28;;;12.32;50.41
46714;BME280;32445;51.376;10.874;2023-03-19T01:55:34;99116.06;;;12.32;49.95
46714;BME280;32445;51.376;10.874;2023-03-19T01:58:35;99105.66;;;12.32;50.18
46714;BME280;32445;51.376;10.874;2023-03-19T02:01:42;99102.16;;;12.33;50.42
46714;BME280;32445;51.376;10.874;2023-03-19T02:04:50;99101.28;;;12.32;50.67
46714;BME280;32445;51.376;10.874;2023-03-19T02:07:55;99098.75;;;12.31;50.37
46714;BME280;32445;51.376;10.874;2023-03-19T02:10:57;99101.28;;;12.32;50.85
46714;BME280;32445;51.376;10.874;2023-03-19T02:13:59;99105.66;;;12.32;51.20
46714;BME280;32445;51.376;10.874;2023-03-19T02:16:59;99103.06;;;12.32;51.40
46714;BME280;32445;51.376;10.874;2023-03-19T02:26:23;99099.69;;;12.29;51.83
46714;BME280;32445;51.376;10.874;2023-03-19T02:29:26;99093.63;;;12.29;51.19
46714;BME280;32445;51.376;10.874;2023-03-19T02:32:26;99094.56;;;12.28;50.95
46714;BME280;32445;51.376;10.874;2023-03-19T02:35:30;99096.28;;;12.27;51.92
46714;BME280;32445;51.376;10.874;2023-03-19T02:38:33;99100.66;;;12.27;51.39
46714;BME280;32445;51.376;10.874;2023-03-19T02:41:35;99105.06;;;12.25;51.26
46714;BME280;32445;51.376;10.874;2023-03-19T02:44:36;99104.28;;;12.23;50.98
46714;BME280;32445;51.376;10.874;2023-03-19T02:47:37;99099.13;;;12.21;50.65
46714;BME280;32445;51.376;10.874;2023-03-19T02:50:37;99101.81;;;12.20;50.85
46714;BME280;32445;51.376;10.874;2023-03-19T02:53:37;99110.50;;;12.19;50.65
46714;BME280;32445;51.376;10.874;2023-03-19T02:56:39;99107.97;;;12.17;50.91
46714;BME280;32445;51.376;10.874;2023-03-19T02:59:39;99100.16;;;12.17;51.16
46714;BME280;32445;51.376;10.874;2023-03-19T03:02:40;99098.47;;;12.16;50.73
46714;BME280;32445;51.376;10.874;2023-03-19T03:05:40;99100.28;;;12.14;51.46
46714;BME280;32445;51.376;10.874;2023-03-19T03:08:41;99104.69;;;12.12;50.45
46714;BME280;32445;51.376;10.874;2023-03-19T03:11:41;99093.50;;;12.10;50.37
46714;BME280;32445;51.376;10.874;2023-03-19T03:14:41;99091.88;;;12.07;50.24
46714;BME280;32445;51.376;10.874;2023-03-19T03:17:43;99099.72;;;12.06;50.65
46714;BME280;32445;51.376;10.874;2023-03-19T03:20:45;99099.84;;;12.03;50.68
46714;BME280;32445;51.376;10.874;2023-03-19T03:23:46;99093.91;;;11.99;51.00
46714;BME280;32445;51.376;10.874;2023-03-19T03:26:47;99107.84;;;11.98;50.12
46714;BME280;32445;51.376;10.874;2023-03-19T03:29:47;99103.53;;;11.97;50.82
46714;BME280;32445;51.376;10.874;2023-03-19T03:32:48;99112.22;;;11.96;51.04
46714;BME280;32445;51.376;10.874;2023-03-19T03:35:48;99108.03;;;11.93;51.34
46714;BME280;32445;51.376;10.874;2023-03-19T03:38:48;99115.81;;;11.93;51.05
46714;BME280;32445;51.376;10.874;2023-03-19T03:41:49;99109.78;;;11.91;50.90
46714;BME280;32445;51.376;10.874;2023-03-19T03:44:50;99108.13;;;11.89;50.64
46714;BME280;32445;51.376;10.874;2023-03-19T03:47:51;99115.16;;;11.87;50.85
46714;BME280;32445;51.376;10.874;2023-03-19T03:50:51;99117.81;;;11.85;51.01
46714;BME280;32445;51.376;10.874;2023-03-19T03:53:51;99118.78;;;11.83;50.46
46714;BME280;32445;51.376;10.874;2023-03-19T03:56:52;99119.75;;;11.80;50.70
46714;BME280;32445;51.376;10.874;2023-03-19T03:59:53;99107.69;;;11.77;51.17
46714;BME280;32445;51.376;10.874;2023-03-19T04:02:53;99107.75;;;11.76;50.95
46714;BME280;32445;51.376;10.874;2023-03-19T04:05:54;99100.88;;;11.75;51.32
46714;BME280;32445;51.376;10.874;2023-03-19T04:08:54;99101.84;;;11.72;50.96
46714;BME280;32445;51.376;10.874;2023-03-19T04:11:54;99093.22;;;11.70;50.71
46714;BME280;32445;51.376;10.874;2023-03-19T04:14:55;99097.72;;;11.67;51.09
46714;BME280;32445;51.376;10.874;2023-03-19T04:17:55;99102.16;;;11.63;50.70
46714;BME280;32445;51.376;10.874;2023-03-19T04:20:55;99112.72;;;11.58;50.40
46714;BME280;32445;51.376;10.874;2023-03-19T04:23:56;99110.31;;;11.54;50.79
46714;BME280;32445;51.376;10.874;2023-03-19T04:26:57;99112.22;;;11.49;50.38
46714;BME280;32445;51.376;10.874;2023-03-19T04:29:57;99115.00;;;11.44;50.32
46714;BME280;32445;51.376;10.874;2023-03-19T04:32:57;99110.81;;;11.40;50.63
46714;BME280;32445;51.376;10.874;2023-03-19T04:35:58;99113.47;;;11.38;51.12
46714;BME280;32445;51.376;10.874;2023-03-19T04:38:59;99111.81;;;11.36;51.19
46714;BME280;32445;51.376;10.874;2023-03-19T04:41:59;99114.47;;;11.34;51.21
46714;BME280;32445;51.376;10.874;2023-03-19T04:45:00;99116.22;;;11.34;51.65
46714;BME280;32445;51.376;10.874;2023-03-19T04:48:00;99124.03;;;11.34;51.21
46714;BME280;32445;51.376;10.874;2023-03-19T04:51:01;99123.22;;;11.32;51.84
46714;BME280;32445;51.376;10.874;2023-03-19T04:54:03;99119.78;;;11.31;51.99
46714;BME280;32445;51.376;10.874;2023-03-19T04:57:04;99119.84;;;11.30;51.41
46714;BME280;32445;51.376;10.874;2023-03-19T05:00:05;99129.38;;;11.29;51.59
46714;BME280;32445;51.376;10.874;2023-03-19T05:03:06;99130.34;;;11.27;52.01
46714;BME280;32445;51.376;10.874;2023-03-19T05:06:06;99131.22;;;11.25;51.53
46714;BME280;32445;51.376;10.874;2023-03-19T05:09:06;99137.31;;;11.24;51.93
46714;BME280;32445;51.376;10.874;2023-03-19T05:12:07;99134.78;;;11.23;52.07
46714;BME280;32445;51.376;10.874;2023-03-19T05:15:08;99140.84;;;11.23;51.81
46714;BME280;32445;51.376;10.874;2023-03-19T05:18:08;99136.53;;;11.22;51.82
46714;BME280;32445;51.376;10.874;2023-03-19T05:21:10;99138.25;;;11.23;51.84
46714;BME280;32445;51.376;10.874;2023-03-19T05:24:11;99144.34;;;11.22;51.93
46714;BME280;32445;51.376;10.874;2023-03-19T05:27:11;99142.63;;;11.21;51.64
46714;BME280;32445;51.376;10.874;2023-03-19T05:30:12;99147.81;;;11.21;51.91
46714;BME280;32445;51.376;10.874;2023-03-19T05:33:12;99143.56;;;11.20;51.63
46714;BME280;32445;51.376;10.874;2023-03-19T05:36:12;99146.16;;;11.20;52.26
46714;BME280;32445;51.376;10.874;2023-03-19T05:39:13;99141.78;;;11.21;52.23
46714;BME280;32445;51.376;10.874;2023-03-19T05:42:13;99145.28;;;11.20;52.03
46714;BME280;32445;51.376;10.874;2023-03-19T05:45:14;99147.88;;;11.20;51.89
46714;BME280;32445;51.376;10.874;2023-03-19T05:48:16;99156.53;;;11.20;51.96
46714;BME280;32445;51.376;10.874;2023-03-19T05:51:16;99173.06;;;11.18;52.67
46714;BME280;32445;51.376;10.874;2023-03-19T05:54:17;99175.66;;;11.18;52.13
46714;BME280;32445;51.376;10.874;2023-03-19T05:57:17;99174.03;;;11.15;52.39
46714;BME280;32445;51.376;10.874;2023-03-19T06:00:18;99168.81;;;11.15;52.12
46714;BME280;32445;51.376;10.874;2023-03-19T06:03:18;99176.66;;;11.14;51.90
46714;BME280;32445;51.376;10.874;2023-03-19T06:06:18;99175.03;;;11.11;51.44
46714;BME280;32445;51.376;10.874;2023-03-19T06:09:19;99175.97;;;11.08;51.82
46714;BME280;32445;51.376;10.874;2023-03-19T06:12:19;99187.28;;;11.07;51.08
46714;BME280;32445;51.376;10.874;2023-03-19T06:15:21;99183.03;;;11.05;51.54
46714;BME280;32445;51.376;10.874;2023-03-19T06:18:21;99175.28;;;11.03;52.01
46714;BME280;32445;51.376;10.874;2023-03-19T06:21:21;99173.63;;;11.01;51.78
46714;BME280;32445;51.376;10.874;2023-03-19T06:24:22;99173.69;;;10.99;51.89
46714;BME280;32445;51.376;10.874;2023-03-19T06:27:22;99176.34;;;10.98;52.01
46714;BME280;32445;51.376;10.874;2023-03-19T06:30:23;99177.19;;;10.98;52.52
46714;BME280;32445;51.376;10.874;2023-03-19T06:33:23;99177.22;;;10.97;52.77
46714;BME280;32445;51.376;10.874;2023-03-19T06:36:26;99179.81;;;10.97;52.69
46714;BME280;32445;51.376;10.874;2023-03-19T06:39:27;99182.41;;;10.97;53.04
46714;BME280;32445;51.376;10.874;2023-03-19T06:42:27;99188.50;;;10.96;52.42
46714;BME280;32445;51.376;10.874;2023-03-19T06:45:27;99191.09;;;10.96;52.48
46714;BME280;32445;51.376;10.874;2023-03-19T06:48:28;99188.50;;;10.96;52.98
46714;BME280;32445;51.376;10.874;2023-03-19T06:51:28;99192.88;;;10.95;53.59
46714;BME280;32445;51.376;10.874;2023-03-19T06:54:28;99204.91;;;10.98;53.97
46714;BME280;32445;51.376;10.874;2023-03-19T06:57:29;99207.50;;;10.98;53.93
46714;BME280;32445;51.376;10.874;2023-03-19T07:00:29;99204.84;;;10.99;53.58
46714;BME280;32445;51.376;10.874;2023-03-19T07:03:30;99209.13;;;11.00;53.97
46714;BME280;32445;51.376;10.874;2023-03-19T07:06:30;99213.38;;;11.03;53.76
46714;BME280;32445;51.376;10.874;2023-03-19T07:09:31;99214.19;;;11.05;54.33
46714;BME280;32445;51.376;10.874;2023-03-19T07:12:31;99211.53;;;11.06;54.16
46714;BME280;32445;51.376;10.874;2023-03-19T07:15:32;99211.50;;;11.08;54.43
46714;BME280;32445;51.376;10.874;2023-03-19T07:18:32;99214.94;;;11.08;54.82
46714;BME280;32445;51.376;10.874;2023-03-19T07:21:33;99214.81;;;11.12;54.71
46714;BME280;32445;51.376;10.874;2023-03-19T07:24:33;99219.06;;;11.14;54.75
46714;BME280;32445;51.376;10.874;2023-03-19T07:27:33;99224.09;;;11.19;54.56
46714;BME280;32445;51.376;10.874;2023-03-19T07:30:33;99223.09;;;11.23;54.59
46714;BME280;32445;51.376;10.874;2023-03-19T07:33:35;99223.94;;;11.25;54.28
46714;BME280;32445;51.376;10.874;2023-03-19T07:36:35;99225.59;;;11.26;55.26
46714;BME280;32445;51.376;10.874;2023-03-19T07:39:35;99234.16;;;11.30;55.12
46714;BME280;32445;51.376;10.874;2023-03-19T07:42:36;99240.97;;;11.34;54.45
46714;BME280;32445;51.376;10.874;2023-03-19T07:45:37;99240.84;;;11.37;55.39
46714;BME280;32445;51.376;10.874;2023-03-19T07:48:39;99241.56;;;11.42;54.94
46714;BME280;32445;51.376;10.874;2023-03-19T07:51:39;99234.47;;;11.46;55.36
46714;BME280;32445;51.376;10.874;2023-03-19T07:54:40;99243.78;;;11.53;55.10
46714;BME280;32445;51.376;10.874;2023-03-19T07:57:40;99242.72;;;11.58;55.23
46714;BME280;32445;51.376;10.874;2023-03-19T08:00:41;99252.94;;;11.63;55.17
46714;BME280;32445;51.376;10.874;2023-03-19T08:03:41;99247.56;;;11.69;55.79
46714;BME280;32445;51.376;10.874;2023-03-19T08:06:42;99254.50;;;11.69;56.66
46714;BME280;32445;51.376;10.874;2023-03-19T08:09:42;99257.94;;;11.69;57.23
46714;BME280;32445;51.376;10.874;2023-03-19T08:12:42;99254.38;;;11.72;57.20
46714;BME280;32445;51.376;10.874;2023-03-19T08:15:43;99255.06;;;11.77;57.15
46714;BME280;32445;51.376;10.874;2023-03-19T08:18:43;99252.19;;;11.85;56.86
46714;BME280;32445;51.376;10.874;2023-03-19T08:21:43;99261.47;;;11.92;57.10
46714;BME280;32445;51.376;10.874;2023-03-19T08:24:44;99262.25;;;11.96;57.66
46714;BME280;32445;51.376;10.874;2023-03-19T08:27:44;99258.66;;;12.00;57.58
46714;BME280;32445;51.376;10.874;2023-03-19T08:30:45;99267.94;;;12.07;57.64
46714;BME280;32445;51.376;10.874;2023-03-19T08:33:45;99267.75;;;12.11;57.90
46714;BME280;32445;51.376;10.874;2023-03-19T08:36:46;99260.66;;;12.17;58.15
46714;BME280;32445;51.376;10.874;2023-03-19T08:39:49;99260.41;;;12.23;57.63
46714;BME280;32445;51.376;10.874;2023-03-19T08:42:50;99276.78;;;12.26;58.49
46714;BME280;32445;51.376;10.874;2023-03-19T08:45:50;99269.69;;;12.30;58.10
46714;BME280;32445;51.376;10.874;2023-03-19T08:48:50;99281.56;;;12.37;57.53
46714;BME280;32445;51.376;10.874;2023-03-19T08:51:51;99277.13;;;12.41;57.45
46714;BME280;32445;51.376;10.874;2023-03-19T08:54:51;99277.94;;;12.41;57.69
46714;BME280;32445;51.376;10.874;2023-03-19T08:57:51;99277.06;;;12.42;58.32
46714;BME280;32445;51.376;10.874;2023-03-19T09:00:52;99278.66;;;12.45;58.63
46714;BME280;32445;51.376;10.874;2023-03-19T09:03:52;99282.84;;;12.49;58.51
46714;BME280;32445;51.376;10.874;2023-03-19T09:06:53;99280.94;;;12.54;58.71
46714;BME280;32445;51.376;10.874;2023-03-19T09:09:53;99279.03;;;12.59;58.88
46714;BME280;32445;51.376;10.874;2023-03-19T09:12:53;99270.06;;;12.67;58.54
46714;BME280;32445;51.376;10.874;2023-03-19T09:15:54;99271.53;;;12.74;58.85
46714;BME280;32445;51.376;10.874;2023-03-19T09:18:54;99274.59;;;12.84;58.02
46714;BME280;32445;51.376;10.874;2023-03-19T09:21:55;99272.41;;;12.95;57.99
46714;BME280;32445;51.376;10.874;2023-03-19T09:24:55;99280.66;;;13.06;57.49
46714;BME280;32445;51.376;10.874;2023-03-19T09:27:56;99277.69;;;13.15;57.84
46714;BME280;32445;51.376;10.874;2023-03-19T09:30:56;99287.81;;;13.23;57.43
46714;BME280;32445;51.376;10.874;2023-03-19T09:33:56;99290.22;;;13.28;57.16
46714;BME280;32445;51.376;10.874;2023-03-19T09:36:57;99292.56;;;13.36;57.12
46714;BME280;32445;51.376;10.874;2023-03-19T09:39:57;99289.56;;;13.45;57.00
46714;BME280;32445;51.376;10.874;2023-03-19T09:49:46;99297.28;;;13.89;56.05
46714;BME280;32445;51.376;10.874;2023-03-19T09:52:53;99292.97;;;14.09;56.49
46714;BME280;32445;51.376;10.874;2023-03-19T09:55:57;99281.63;;;14.29;56.27
46714;BME280;32445;51.376;10.874;2023-03-19T09:58:58;99283.34;;;14.49;55.81
46714;BME280;32445;51.376;10.874;2023-03-19T10:05:41;99297.91;;;14.74;54.76
46714;BME280;32445;51.376;10.874;2023-03-19T10:11:57;99290.59;;;14.99;54.42
46714;BME280;32445;51.376;10.874;2023-03-19T10:15:48;99290.13;;;15.09;53.26
46714;BME280;32445;51.376;10.874;2023-03-19T10:18:29;99289.47;;;15.22;51.60
46714;BME280;32445;51.376;10.874;2023-03-19T10:24:39;99292.81;;;15.44;49.80
46714;BME280;32445;51.376;10.874;2023-03-19T10:27:42;99293.28;;;15.52;49.10
46714;BME280;32445;51.376;10.874;2023-03-19T10:31:37;99285.81;;;15.62;48.32
46714;BME280;32445;51.376;10.874;2023-03-19T10:34:22;99294.28;;;15.67;48.29
46714;BME280;32445;51.376;10.874;2023-03-19T10:37:25;99291.34;;;15.73;48.18
46714;BME280;32445;51.376;10.874;2023-03-19T10:40:39;99286.53;;;15.83;48.31
46714;BME280;32445;51.376;10.874;2023-03-19T10:43:52;99286.91;;;15.93;47.86
46714;BME280;32445;51.376;10.874;2023-03-19T10:46:56;99289.28;;;15.97;48.09
46714;BME280;32445;51.376;10.874;2023-03-19T10:49:57;99291.34;;;16.08;48.26
46714;BME280;32445;51.376;10.874;2023-03-19T10:56:28;99288.13;;;16.36;47.48
46714;BME280;32445;51.376;10.874;2023-03-19T10:59:35;99295.28;;;16.49;46.80
46714;BME280;32445;51.376;10.874;2023-03-19T11:02:48;99289.31;;;16.47;45.84
46714;BME280;32445;51.376;10.874;2023-03-19T11:06:03;99291.75;;;16.50;46.15
46714;BME280;32445;51.376;10.874;2023-03-19T11:12:26;99288.97;;;16.69;46.86
46714;BME280;32445;51.376;10.874;2023-03-19T11:15:33;99295.56;;;16.76;46.07
46714;BME280;32445;51.376;10.874;2023-03-19T11:18:37;99297.34;;;16.75;45.90
46714;BME280;32445;51.376;10.874;2023-03-19T11:21:38;99302.25;;;16.82;46.29
46714;BME280;32445;51.376;10.874;2023-03-19T11:24:40;99293.47;;;16.83;46.62
46714;BME280;32445;51.376;10.874;2023-03-19T11:27:41;99285.88;;;16.94;46.72
46714;BME280;32445;51.376;10.874;2023-03-19T11:34:07;99286.88;;;17.07;46.14
46714;BME280;32445;51.376;10.874;2023-03-19T11:41:10;99289.97;;;17.30;46.51
46714;BME280;32445;51.376;10.874;2023-03-19T11:44:19;99285.22;;;17.37;46.47
46714;BME280;32445;51.376;10.874;2023-03-19T11:50:39;99278.88;;;17.41;45.72
46714;BME280;32445;51.376;10.874;2023-03-19T11:54:05;99279.53;;;17.44;45.65
46714;BME280;32445;51.376;10.874;2023-03-19T11:57:11;99275.13;;;17.59;46.79
46714;BME280;32445;51.376;10.874;2023-03-19T12:00:30;99280.16;;;17.78;47.55
46714;BME280;32445;51.376;10.874;2023-03-19T12:14:59;99264.59;;;18.62;45.47
46714;BME280;32445;51.376;10.874;2023-03-19T12:17:45;99269.72;;;18.78;44.01
46714;BME280;32445;51.376;10.874;2023-03-19T12:24:05;99268.22;;;18.88;43.29
46714;BME280;32445;51.376;10.874;2023-03-19T12:37:19;99262.09;;;19.15;42.99
46714;BME280;32445;51.376;10.874;2023-03-19T12:40:28;99258.97;;;19.23;42.85
46714;BME280;32445;51.376;10.874;2023-03-19T12:46:59;99253.41;;;19.27;42.95
46714;BME280;32445;51.376;10.874;2023-03-19T12:50:04;99259.50;;;19.28;42.65
46714;BME280;32445;51.376;10.874;2023-03-19T12:53:25;99243.94;;;19.25;42.45
46714;BME280;32445;51.376;10.874;2023-03-19T12:56:37;99253.22;;;19.30;43.00
46714;BME280;32445;51.376;10.874;2023-03-19T12:59:59;99243.84;;;19.39;43.25
46714;BME280;32445;51.376;10.874;2023-03-19T13:06:11;99245.25;;;19.58;41.72
46714;BME280;32445;51.376;10.874;2023-03-19T13:09:31;99245.03;;;19.48;41.79
46714;BME280;32445;51.376;10.874;2023-03-19T13:12:35;99243.88;;;19.52;41.89
46714;BME280;32445;51.376;10.874;2023-03-19T13:15:43;99242.19;;;19.51;41.69
46714;BME280;32445;51.376;10.874;2023-03-19T13:18:56;99245.16;;;19.59;43.06
46714;BME280;32445;51.376;10.874;2023-03-19T13:22:03;99239.56;;;19.77;42.45
46714;BME280;32445;51.376;10.874;2023-03-19T13:25:21;99246.78;;;19.87;42.09
46714;BME280;32445;51.376;10.874;2023-03-19T13:28:34;99239.16;;;19.96;40.88
46714;BME280;32445;51.376;10.874;2023-03-19T13:31:36;99230.88;;;19.89;41.00
46714;BME280;32445;51.376;10.874;2023-03-19T13:34:37;99235.28;;;19.88;41.88
46714;BME280;32445;51.376;10.874;2023-03-19T13:37:41;99234.75;;;19.96;41.89
46714;BME280;32445;51.376;10.874;2023-03-19T13:40:50;99228.63;;;20.09;41.78
46714;BME280;32445;51.376;10.874;2023-03-19T13:43:52;99224.78;;;20.26;41.67
46714;BME280;32445;51.376;10.874;2023-03-19T13:46:53;99218.88;;;20.35;40.94
46714;BME280;32445;51.376;10.874;2023-03-19T13:56:31;99210.56;;;20.65;40.46
46714;BME280;32445;51.376;10.874;2023-03-19T13:59:37;99212.38;;;20.65;39.77
46714;BME280;32445;51.376;10.874;2023-03-19T14:05:48;99210.25;;;20.57;40.19
46714;BME280;32445;51.376;10.874;2023-03-19T14:08:49;99198.47;;;20.50;38.98
46714;BME280;32445;51.376;10.874;2023-03-19T14:11:50;99202.81;;;20.51;40.54
46714;BME280;32445;51.376;10.874;2023-03-19T14:15:13;99192.72;;;20.45;39.53
46714;BME280;32445;51.376;10.874;2023-03-19T14:18:17;99194.38;;;20.46;38.82
46714;BME280;32445;51.376;10.874;2023-03-19T14:25:19;99196.13;;;20.71;38.52
46714;BME280;32445;51.376;10.874;2023-03-19T14:28:28;99190.44;;;20.88;38.41
46714;BME280;32445;51.376;10.874;2023-03-19T14:31:46;99188.63;;;20.89;38.78
46714;BME280;32445;51.376;10.874;2023-03-19T14:34:48;99196.00;;;20.97;39.61
46714;BME280;32445;51.376;10.874;2023-03-19T14:37:49;99196.50;;;21.13;41.18
46714;BME280;32445;51.376;10.874;2023-03-19T14:40:51;99194.88;;;21.23;41.58
46714;BME280;32445;51.376;10.874;2023-03-19T14:44:17;99203.38;;;21.16;38.27
46714;BME280;32445;51.376;10.874;2023-03-19T14:47:32;99202.91;;;21.22;37.60
46714;BME280;32445;51.376;10.874;2023-03-19T14:54:15;99194.97;;;21.22;37.22
46714;BME280;32445;51.376;10.874;2023-03-19T14:57:21;99196.09;;;21.31;37.06
46714;BME280;32445;51.376;10.874;2023-03-19T15:00:24;99202.09;;;21.33;36.99
46714;BME280;32445;51.376;10.874;2023-03-19T15:03:33;99197.41;;;21.25;37.02
46714;BME280;32445;51.376;10.874;2023-03-19T15:06:40;99204.00;;;21.19;36.16
46714;BME280;32445;51.376;10.874;2023-03-19T15:09:42;99197.34;;;21.02;36.91
46714;BME280;32445;51.376;10.874;2023-03-19T15:19:16;99189.47;;;20.89;37.67
46714;BME280;32445;51.376;10.874;2023-03-19T15:22:28;99204.56;;;20.87;37.71
46714;BME280;32445;51.376;10.874;2023-03-19T15:25:30;99197.34;;;20.78;37.59
46714;BME280;32445;51.376;10.874;2023-03-19T15:28:32;99196.13;;;20.71;37.90
46714;BME280;32445;51.376;10.874;2023-03-19T15:31:47;99200.94;;;20.64;37.72
46714;BME280;32445;51.376;10.874;2023-03-19T15:34:48;99204.88;;;20.58;38.02
46714;BME280;32445;51.376;10.874;2023-03-19T15:37:52;99216.84;;;20.38;37.67
46714;BME280;32445;51.376;10.874;2023-03-19T15:40:54;99220.63;;;20.10;37.53
46714;BME280;32445;51.376;10.874;2023-03-19T15:43:54;99226.97;;;19.82;37.10
46714;BME280;32445;51.376;10.874;2023-03-19T15:46:56;99244.22;;;19.60;37.28
46714;BME280;32445;51.376;10.874;2023-03-19T15:50:04;99237.44;;;19.43;37.51
46714;BME280;32445;51.376;10.874;2023-03-19T15:53:09;99232.06;;;19.32;37.51
46714;BME280;32445;51.376;10.874;2023-03-19T15:56:13;99242.75;;;19.16;37.88
46714;BME280;32445;51.376;10.874;2023-03-19T15:59:17;99244.31;;;19.06;38.33
46714;BME280;32445;51.376;10.874;2023-03-19T16:05:29;99251.63;;;18.73;38.91
46714;BME280;32445;51.376;10.874;2023-03-19T16:08:30;99259.13;;;18.65;39.28
46714;BME280;32445;51.376;10.874;2023-03-19T16:11:36;99256.44;;;18.52;39.59
46714;BME280;32445;51.376;10.874;2023-03-19T16:14:41;99263.69;;;18.48;39.62
46714;BME280;32445;51.376;10.874;2023-03-19T16:17:42;99254.66;;;18.38;40.38
46714;BME280;32445;51.376;10.874;2023-03-19T16:20:43;99261.00;;;18.36;40.40
46714;BME280;32445;51.376;10.874;2023-03-19T16:23:50;99264.94;;;18.28;40.56
46714;BME280;32445;51.376;10.874;2023-03-19T16:26:52;99267.28;;;18.19;40.58
46714;BME280;32445;51.376;10.874;2023-03-19T16:29:57;99273.38;;;18.05;41.03
46714;BME280;32445;51.376;10.874;2023-03-19T16:33:02;99286.94;;;17.83;41.50
46714;BME280;32445;51.376;10.874;2023-03-19T16:36:03;99286.91;;;17.68;41.81
46714;BME280;32445;51.376;10.874;2023-03-19T16:39:23;99295.66;;;17.53;41.88
46714;BME280;32445;51.376;10.874;2023-03-19T16:42:36;99298.25;;;17.38;42.61
46714;BME280;32445;51.376;10.874;2023-03-19T16:45:37;99301.88;;;17.36;42.56
46714;BME280;32445;51.376;10.874;2023-03-19T16:48:38;99289.38;;;17.25;43.08
46714;BME280;32445;51.376;10.874;2023-03-19T16:51:38;99293.13;;;17.21;43.15
46714;BME280;32445;51.376;10.874;2023-03-19T16:54:39;99300.13;;;17.20;42.76
46714;BME280;32445;51.376;10.874;2023-03-19T16:57:39;99297.97;;;17.12;43.55
46714;BME280;32445;51.376;10.874;2023-03-19T17:00:40;99297.53;;;17.04;43.55
46714;BME280;32445;51.376;10.874;2023-03-19T17:03:43;99299.06;;;16.92;43.61
46714;BME280;32445;51.376;10.874;2023-03-19T17:06:44;99296.84;;;16.85;44.15
46714;BME280;32445;51.376;10.874;2023-03-19T17:09:44;99292.94;;;16.76;44.30
46714;BME280;32445;51.376;10.874;2023-03-19T17:12:47;99288.13;;;16.84;44.10
46714;BME280;32445;51.376;10.874;2023-03-19T17:15:48;99291.22;;;16.92;43.96
46714;BME280;32445;51.376;10.874;2023-03-19T17:18:50;99290.94;;;16.97;43.75
46714;BME280;32445;51.376;10.874;2023-03-19T17:21:54;99296.00;;;17.00;43.26
46714;BME280;32445;51.376;10.874;2023-03-19T17:24:55;99296.78;;;17.02;43.41
46714;BME280;32445;51.376;10.874;2023-03-19T17:27:55;99298.56;;;17.02;42.99
46714;BME280;32445;51.376;10.874;2023-03-19T17:30:56;99300.44;;;17.00;43.85
46714;BME280;32445;51.376;10.874;2023-03-19T17:34:08;99301.44;;;16.97;43.30